• Join FlightAware (Why Join?)
  • Login
  • US Flag 
12:20PM EDT


 

Airport Tracker/Info


-or-


 

Live Flight TrackerFlight Track Log ✈ ASQ3807 ✈ 02-May-2013 ✈ KGRR - KEWR

Flight Track Log - Related Links

Times and Time Zones

All times are in EDT time to prevent confusion due to time zone crossing. See the ASQ3807 flight status page for this flight to view local times or setup timezone preferences in your user account.

Time Position Orientation Groundspeed Altitude Reporting Facility
EDT Latitude Longitude Course Direction KTS MPH feet Rate Location/Type
06:31PM 42.8247 -85.4972 107° East 180 207 2,900  Level Chicago Center
06:32PM 42.7564 -85.4539 155° Southeast 227 261 5,400 2,280 Climbing Chicago Center
06:33PM 42.7369 -85.3597 106° East 253 291 7,700 2,040 Climbing Chicago Center
06:34PM 42.7572 -85.0357 105° East  Level FlightAware Approximate
06:34PM 42.7192 -85.2561 103° East 274 315 9,600  Level Chicago Center
06:35PM 42.7301 -84.9134 107° East  Level FlightAware Approximate
06:35PM 42.6983 -85.1417 104° East 302 348 10,700  Level Chicago Center
06:36PM 42.6984 -84.7763 107° East  Level FlightAware Approximate
06:36PM 42.6753 -85.0164 104° East 334 384 12,100  Level Chicago Center
06:37PM 42.6558 -84.8869 102° East 347 399 13,500 1,200 Climbing Chicago Center
06:38PM 42.6333 -84.7267 101° East 358 412 14,700 1,020 Climbing Chicago Center
06:39PM 42.6131 -84.5881 101° East 370 426 15,700 900 Climbing Chicago Center
06:40PM 42.5914 -84.4475 102° East 378 435 16,600 900 Climbing Chicago Center
06:41PM 42.5700 -84.3036 101° East 387 445 17,600 840 Climbing Chicago Center
06:42PM 42.5478 -84.1594 102° East 391 450 18,400 840 Climbing Chicago Center
06:43PM 42.5250 -84.0131 102° East 396 456 19,400 960 Climbing Chicago Center
06:44PM 42.4972 -83.8444 103° East 396 456 20,400 1,020 Climbing Cleveland Center
06:45PM 42.4725 -83.6911 102° East 401 461 21,400 960 Climbing Cleveland Center
06:46PM 42.4514 -83.5408 101° East 401 461 22,400 960 Climbing Cleveland Center
06:47PM 42.4239 -83.3906 104° East 401 461 23,400 960 Climbing Cleveland Center
06:48PM 42.4003 -83.2375 102° East 406 467 24,400 900 Climbing Cleveland Center
06:49PM 42.3786 -83.0989 102° East 411 473 25,200 840 Climbing Cleveland Center
06:50PM 42.3525 -82.9461 103° East 411 473 26,100 900 Climbing Cleveland Center
06:51PM 42.3283 -82.7992 102° East 411 473 27,100 960 Climbing Cleveland Center
06:52PM 42.3019 -82.6494 103° East 411 473 28,100 960 Climbing Cleveland Center
06:53PM 42.2775 -82.5028 103° East 411 473 29,100 900 Climbing Cleveland Center
06:54PM 42.2547 -82.3533 102° East 406 467 30,000 900 Climbing Cleveland Center
06:55PM 42.2319 -82.2069 102° East 406 467 31,000 960 Climbing Cleveland Center
06:56PM 42.2111 -82.0550 100° East 401 461 32,000 960 Climbing Cleveland Center
06:57PM 42.1878 -81.9031 102° East 401 461 33,000 960 Climbing Cleveland Center
06:58PM 42.1625 -81.7400 102° East 406 467 34,000 900 Climbing Cleveland Center
06:59PM 42.1389 -81.5883 102° East 413 475 34,900 480 Climbing Cleveland Center
07:00PM 42.1153 -81.4314 101° East 420 483 35,000  Climbing Cleveland Center
07:01PM 42.0872 -81.2686 103° East 437 503 35,000  Level Cleveland Center
07:02PM 42.0608 -81.1006 102° East 457 526 35,000  Level Cleveland Center
07:03PM 42.0344 -80.9325 102° East 463 533 35,000  Level Cleveland Center
07:04PM 42.0056 -80.7647 103° East 455 524 35,000  Level Cleveland Center
07:05PM 41.9828 -80.6139 101° East 450 518 35,000  Level Cleveland Center
07:06PM 41.9558 -80.4492 102° East 450 518 35,000  Level Cleveland Center
07:07PM 41.9261 -80.2817 103° East 456 525 35,000  Level Cleveland Center
07:08PM 41.8986 -80.1144 102° East 456 525 35,000  Level Cleveland Center
07:09PM 41.8708 -79.9531 103° East 449 517 35,000  Level Cleveland Center
07:10PM 41.8447 -79.7889 102° East 449 517 35,000  Level Cleveland Center
07:11PM 41.8119 -79.6081 104° East 449 517 35,000  Level Cleveland Center
07:12PM 41.7833 -79.4469 103° East 449 517 35,000  Level Cleveland Center
07:13PM 41.7547 -79.2833 103° East 449 517 35,000  Level Cleveland Center
07:14PM 41.7278 -79.1308 103° East 457 526 35,000  Level Cleveland Center
07:15PM 41.6964 -78.9647 104° East 457 526 35,000  Level Cleveland Center
07:16PM 41.6644 -78.7819 103° East 457 526 35,000  Level Cleveland Center
07:17PM 41.6347 -78.6161 103° East 457 526 35,000 -60 Level Cleveland Center
07:18PM 41.6044 -78.4503 104° East 457 526 34,900 -540 Descending Cleveland Center
07:19PM 41.5722 -78.2878 105° East 452 520 34,000 -960 Descending Cleveland Center
07:20PM 41.5386 -78.1047 104° East 464 534 32,900 -960 Descending New York Center
07:21PM 41.5086 -77.9489 104° East 450 518 32,000 -960 Descending New York Center
07:22PM 41.4853 -77.7831 101° East 445 512 31,000 -600 Descending New York Center
07:23PM 41.4614 -77.6172 101° East 445 512 30,900  Descending New York Center
07:24PM 41.4411 -77.4656 100° East 445 512 31,000 -960 Climbing New York Center
07:25PM 41.4117 -77.2800 102° East 457 526 29,100 -1,020 Descending New York Center
07:26PM 41.3875 -77.1117 101° East 457 526 29,000 -60 Descending New York Center
07:27PM 41.3628 -76.9464 101° East 457 526 29,000  Level New York Center
07:28PM 41.3017 -76.7997 119° Southeast 452 520 29,000 -840 Level New York Center
07:29PM 41.2000 -76.7081 146° Southeast 430 495 27,400 -1,800 Descending New York Center
07:30PM 41.1225 -76.5911 131° Southeast 429 494 25,400 -1,980 Descending New York Center
07:31PM 41.0986 -76.4375 102° East 412 474 23,500 -1,980 Descending New York Center
07:32PM 41.0853 -76.2822 96° East 412 474 21,500 -1,980 Descending New York Center
07:33PM 41.0692 -76.1350 98° East 407 468 19,600 -1,860 Descending New York Center
07:34PM 41.0586 -75.9939 96° East 395 455 17,900 -1,860 Descending New York Center
07:35PM 41.0436 -75.8606 98° East 372 428 15,900 -1,920 Descending New York Center
07:36PM 41.0314 -75.7553 99° East 338 389 14,000 -1,500 Descending New York Center
07:37PM 41.0200 -75.6306 97° East 315 362 13,000 -540 Descending New York Center
07:38PM 40.9989 -75.5328 106° East 310 357 13,000  Level New York Center
07:39PM 40.9681 -75.4208 110° East 300 345 13,000 -720 Level New York Center
07:40PM 40.9422 -75.3311 111° Southeast 290 334 11,600 -1,740 Descending New York Center
07:41PM 40.9167 -75.2386 110° East 277 319 9,600 -1,980 Descending New York Center
07:42PM 40.8892 -75.1408 110° East 264 304 7,700 -1,320 Descending New York Center
07:43PM 40.8650 -75.0569 111° Southeast 257 296 7,000 -360 Descending New York Center
07:44PM 40.8414 -74.9650 109° East 257 296 7,000  Level New York Center
07:45PM 40.8194 -74.8758 108° East 257 296 7,000  Level New York Center
07:46PM 40.7953 -74.7867 110° East 257 296 7,000  Level New York Center
07:47PM 40.7733 -74.7006 109° East 252 290 7,000 -360 Level New York Center
07:48PM 40.7822 -74.6189 82° East 247 284 6,300 -780 Descending New York Center
07:49PM 40.8000 -74.6000 39° Northeast 270 311 6,000 -600 Descending New York TRACON
07:50PM 40.8500 -74.5333 45° Northeast 257 296 5,500 -600 Descending New York TRACON
07:50PM 40.8778 -74.4981 44° Northeast 243 280 5,100 -360 Descending New York Center
07:51PM 40.9242 -74.4181 52° Northeast 249 287 5,000 -60 Descending New York Center
07:52PM 40.9328 -74.3333 82° East 242 278 5,000 -240 Level New York Center
07:53PM 40.9333 -74.2833 89° East 254 292 4,700 -900 Descending New York TRACON
07:54PM 40.9167 -74.2000 105° East 257 296 3,800 -780 Descending New York TRACON
07:55PM 40.9000 -74.1000 102° East 253 291 3,100 -420 Descending New York TRACON
07:56PM 40.8667 -74.0667 143° Southeast 203 234 3,000 -300 Descending New York TRACON
07:57PM 40.8167 -74.0833 194° South 194 223 2,600 -720 Descending New York TRACON
07:58PM 40.7667 -74.1167 207° Southwest 173 199 1,600 -960 Descending New York TRACON